Time;durP1;ratioP1;P1;durP2;ratioP2;P2;SDS_P1;SDS_P2;PMS_P1;PMS_P2;Temp;Humidity;BMP_temperature;BMP_pressure;BME280_temperature;BME280_humidity;BME280_pressure;Samples;Min_cycle;Max_cycle;Signal;HPM_P1;HPM_P2
2023/02/05 00:00:56;;;;;;;35.13;23.80;;;10.10;99.90;;;;;;5098257;28;20176;-92
2023/02/05 00:03:23;;;;;;;33.23;22.63;;;9.90;99.90;;;;;;5114646;28;20152;-88
2023/02/05 00:05:49;;;;;;;30.27;23.53;;;9.80;99.90;;;;;;5117780;28;20167;-88
2023/02/05 00:08:16;;;;;;;30.77;22.47;;;9.80;99.90;;;;;;5115679;28;20187;-85
2023/02/05 00:11:34;;;;;;;31.97;22.70;;;9.80;99.90;;;;;;5109579;28;20585;-86
2023/02/05 00:14:06;;;;;;;30.77;22.57;;;9.80;99.90;;;;;;5116114;28;20152;-84
2023/02/05 00:16:33;;;;;;;30.97;22.20;;;9.80;99.90;;;;;;5112313;28;20167;-83
2023/02/05 00:18:59;;;;;;;28.93;21.87;;;9.70;99.90;;;;;;5117282;28;20182;-83
2023/02/05 00:21:26;;;;;;;32.43;24.13;;;9.80;99.90;;;;;;5118039;28;20219;-84
2023/02/05 00:23:52;;;;;;;27.40;21.50;;;9.70;99.90;;;;;;5117697;28;20166;-86
2023/02/05 00:26:30;;;;;;;29.03;21.27;;;9.70;99.90;;;;;;5119336;28;20152;-83
2023/02/05 00:29:03;;;;;;;30.43;21.50;;;9.80;99.90;;;;;;5114892;28;20207;-82
2023/02/05 00:31:29;;;;;;;28.00;21.30;;;9.70;99.90;;;;;;5108507;28;20184;-82
2023/02/05 00:33:58;;;;;;;30.83;22.13;;;9.70;99.90;;;;;;5115608;28;20163;-83
2023/02/05 00:36:26;;;;;;;28.00;21.83;;;9.80;99.90;;;;;;5117573;28;20170;-83
2023/02/05 00:42:23;;;;;;;24.40;19.47;;;9.90;99.90;;;;;;5110937;28;20190;-93
2023/02/05 00:48:11;;;;;;;27.00;20.07;;;9.70;99.90;;;;;;5103223;28;20241;-92
2023/02/05 00:50:36;;;;;;;28.63;20.80;;;9.60;99.90;;;;;;5114550;28;20231;-90
2023/02/05 00:53:26;;;;;;;26.73;20.63;;;9.70;99.90;;;;;;5109375;28;20195;-86
2023/02/05 00:56:24;;;;;;;24.37;18.83;;;9.90;99.90;;;;;;5118339;28;20147;-81
2023/02/05 00:58:50;;;;;;;25.83;19.40;;;10.00;99.90;;;;;;5112339;28;20186;-82
2023/02/05 01:01:18;;;;;;;25.97;18.80;;;9.90;99.90;;;;;;5105887;28;20172;-92
2023/02/05 01:03:47;;;;;;;26.30;18.30;;;9.90;99.90;;;;;;5080296;28;20171;-92
2023/02/05 01:06:14;;;;;;;25.93;18.17;;;9.90;99.90;;;;;;5098492;28;20156;-86
2023/02/05 01:08:40;;;;;;;25.40;18.50;;;10.00;99.90;;;;;;5109334;28;20172;-83
2023/02/05 01:11:09;;;;;;;25.07;18.63;;;10.00;99.90;;;;;;5100749;28;20228;-93
2023/02/05 01:13:36;;;;;;;22.50;17.97;;;9.90;99.90;;;;;;5079851;28;20695;-90
2023/02/05 01:16:06;;;;;;;24.83;19.23;;;10.00;99.90;;;;;;5097374;28;20612;-90
2023/02/05 01:18:32;;;;;;;27.03;18.23;;;10.10;99.90;;;;;;5097420;28;20160;-91
2023/02/05 01:20:58;;;;;;;25.87;18.87;;;10.10;99.90;;;;;;5099344;28;20180;-88
2023/02/05 01:23:23;;;;;;;27.57;18.87;;;10.30;99.90;;;;;;5100679;28;20258;-91
2023/02/05 01:25:49;;;;;;;21.53;18.10;;;10.30;99.90;;;;;;5099651;28;20538;-91
2023/02/05 01:28:15;;;;;;;28.43;19.37;;;10.30;99.90;;;;;;5099541;28;20186;-92
2023/02/05 01:30:41;;;;;;;25.10;18.63;;;10.10;99.90;;;;;;5097935;28;20237;-91
2023/02/05 01:33:06;;;;;;;27.63;19.03;;;10.10;99.90;;;;;;5098265;28;20175;-92
2023/02/05 01:35:32;;;;;;;27.27;19.00;;;10.00;99.90;;;;;;5098563;28;20211;-92
2023/02/05 01:37:59;;;;;;;25.13;19.20;;;10.10;99.90;;;;;;5100412;28;20275;-90
2023/02/05 01:40:24;;;;;;;23.83;18.13;;;9.90;99.90;;;;;;5100752;28;20176;-92
2023/02/05 01:42:50;;;;;;;24.77;18.50;;;9.80;99.90;;;;;;5100606;28;20220;-85
2023/02/05 01:45:22;;;;;;;25.67;18.30;;;9.90;99.90;;;;;;5099525;28;20548;-90
2023/02/05 01:47:48;;;;;;;27.27;18.73;;;9.90;99.90;;;;;;5099118;28;20175;-88
2023/02/05 01:50:16;;;;;;;26.57;18.30;;;9.80;99.90;;;;;;5098919;28;20211;-90
2023/02/05 01:52:42;;;;;;;23.40;17.80;;;9.90;99.90;;;;;;5098880;28;20201;-84
2023/02/05 01:55:08;;;;;;;20.57;17.10;;;9.80;99.90;;;;;;5097298;28;20221;-92
2023/02/05 01:57:35;;;;;;;18.80;15.27;;;9.70;99.90;;;;;;5098450;28;20175;-84
2023/02/05 02:00:02;;;;;;;16.97;12.30;;;9.90;99.90;;;;;;5098109;28;20175;-83
2023/02/05 02:02:29;;;;;;;15.70;13.30;;;9.70;99.90;;;;;;5079714;28;20270;-91
2023/02/05 02:05:00;;;;;;;14.83;10.77;;;9.70;99.50;;;;;;5098099;28;20647;-90
2023/02/05 02:07:26;;;;;;;18.00;11.33;;;9.60;98.60;;;;;;5098187;28;20172;-91
2023/02/05 02:09:53;;;;;;;15.47;10.43;;;9.60;98.90;;;;;;5098287;28;20199;-92
2023/02/05 02:12:25;;;;;;;16.90;10.20;;;9.50;97.80;;;;;;5101825;28;20207;-90
2023/02/05 02:14:54;;;;;;;13.93;9.53;;;9.50;98.20;;;;;;5100224;28;20541;-90
2023/02/05 02:17:20;;;;;;;13.00;9.03;;;9.50;97.70;;;;;;5099458;28;20183;-90
2023/02/05 02:20:01;;;;;;;12.67;8.97;;;9.50;96.20;;;;;;5098767;28;20163;-89
2023/02/05 02:22:54;;;;;;;12.67;8.67;;;9.50;95.60;;;;;;5097551;28;20256;-91
2023/02/05 02:25:45;;;;;;;11.30;8.73;;;9.50;94.30;;;;;;5101576;28;20647;-83
2023/02/05 02:28:20;;;;;;;12.80;8.37;;;9.50;94.60;;;;;;5116461;28;20282;-85
2023/02/05 02:30:59;;;;;;;12.13;8.90;;;9.50;94.30;;;;;;5114757;28;20195;-81
2023/02/05 02:37:41;;;;;;;11.77;7.87;;;9.50;92.50;;;;;;5101800;28;20166;-90
2023/02/05 02:40:20;;;;;;;10.10;7.20;;;9.40;92.70;;;;;;5120489;28;20282;-90
2023/02/05 02:42:53;;;;;;;9.30;7.00;;;9.30;93.00;;;;;;5119749;28;20178;-86
2023/02/05 02:45:24;;;;;;;9.43;6.90;;;9.40;93.00;;;;;;5116913;28;20172;-87
2023/02/05 02:47:54;;;;;;;11.10;7.33;;;9.40;92.00;;;;;;5084708;28;20580;-92
2023/02/05 02:50:25;;;;;;;10.00;6.50;;;9.40;92.00;;;;;;5098411;28;20194;-85
2023/02/05 02:52:52;;;;;;;8.87;5.90;;;9.40;91.00;;;;;;5097286;28;20206;-89
2023/02/05 02:55:20;;;;;;;6.63;5.03;;;9.20;91.50;;;;;;5112992;28;20160;-82
2023/02/05 02:57:47;;;;;;;8.27;5.90;;;9.30;90.50;;;;;;5119826;28;20174;-90
2023/02/05 03:00:24;;;;;;;8.17;5.57;;;9.20;87.80;;;;;;5116781;28;20168;-88
2023/02/05 03:03:00;;;;;;;7.57;4.60;;;9.20;86.50;;;;;;5087108;28;20171;-88
2023/02/05 03:05:27;;;;;;;8.47;5.07;;;9.20;84.90;;;;;;5119859;28;20159;-86
2023/02/05 03:08:01;;;;;;;6.63;5.10;;;9.20;84.90;;;;;;5116088;28;20175;-91
2023/02/05 03:10:49;;;;;;;7.37;4.90;;;9.20;83.70;;;;;;5116827;28;20230;-85
2023/02/05 03:13:18;;;;;;;6.90;4.70;;;9.20;84.10;;;;;;5118590;28;20250;-89
2023/02/05 03:15:45;;;;;;;6.83;4.67;;;9.20;83.00;;;;;;5110456;28;20156;-90
2023/02/05 03:18:35;;;;;;;6.57;4.70;;;9.20;82.90;;;;;;5098888;28;20167;-91
2023/02/05 03:21:16;;;;;;;9.17;5.07;;;9.30;81.70;;;;;;5097449;28;20190;-89
2023/02/05 03:23:42;;;;;;;7.13;4.33;;;9.30;81.50;;;;;;5097238;28;20232;-91
2023/02/05 03:26:34;;;;;;;6.10;4.10;;;9.30;81.80;;;;;;5105958;28;20243;-82
2023/02/05 03:29:06;;;;;;;6.03;4.40;;;9.30;82.30;;;;;;5119055;28;20321;-83
2023/02/05 03:31:32;;;;;;;6.87;4.00;;;9.30;80.90;;;;;;5117975;28;20228;-86
2023/02/05 03:34:35;;;;;;;7.13;4.77;;;9.30;81.60;;;;;;5120275;28;20181;-81
2023/02/05 03:37:46;;;;;;;11.00;4.60;;;9.30;80.40;;;;;;5119769;28;20151;-86
2023/02/05 03:40:58;;;;;;;4.63;4.03;;;9.30;80.60;;;;;;5109902;28;20233;-86
2023/02/05 03:43:42;;;;;;;8.93;4.67;;;9.20;79.10;;;;;;5105160;28;20203;-89
2023/02/05 03:46:30;;;;;;;6.37;4.33;;;9.10;80.90;;;;;;5099643;28;20254;-90
2023/02/05 03:49:04;;;;;;;9.47;5.10;;;9.00;81.30;;;;;;5104467;28;20195;-90
2023/02/05 03:51:55;;;;;;;9.20;4.57;;;9.10;81.20;;;;;;5095527;28;20175;-89
2023/02/05 03:54:26;;;;;;;5.43;3.83;;;9.10;80.10;;;;;;5094314;28;20226;-89
2023/02/05 03:57:08;;;;;;;10.73;5.03;;;9.00;81.40;;;;;;5094934;28;20171;-85
2023/02/05 03:59:35;;;;;;;8.90;4.20;;;9.10;82.20;;;;;;5099489;28;20172;-89
2023/02/05 04:02:03;;;;;;;11.57;4.60;;;9.10;82.10;;;;;;5095370;28;20167;-83
2023/02/05 04:04:30;;;;;;;9.97;5.17;;;9.10;80.50;;;;;;5100302;28;20186;-82
2023/02/05 04:06:56;;;;;;;5.97;4.40;;;9.10;81.70;;;;;;5094196;28;20176;-90
2023/02/05 04:09:24;;;;;;;8.50;5.23;;;9.20;81.40;;;;;;5102978;28;20265;-89
2023/02/05 04:11:50;;;;;;;9.13;5.43;;;9.20;80.20;;;;;;5102471;28;20172;-88
2023/02/05 04:14:16;;;;;;;6.57;5.33;;;9.50;80.00;;;;;;5103206;28;20220;-90
2023/02/05 04:16:41;;;;;;;9.67;5.70;;;9.30;80.00;;;;;;5097384;28;20183;-90
2023/02/05 04:19:07;;;;;;;10.80;6.20;;;9.40;79.60;;;;;;5094847;28;20174;-90
2023/02/05 04:21:33;;;;;;;9.93;6.50;;;9.20;82.40;;;;;;5094401;28;20742;-89
2023/02/05 04:23:58;;;;;;;10.40;6.60;;;9.10;86.00;;;;;;5100017;28;20182;-83
2023/02/05 04:26:24;;;;;;;10.87;6.20;;;9.10;87.30;;;;;;5102779;28;20179;-85
2023/02/05 04:28:53;;;;;;;11.87;6.90;;;9.10;87.20;;;;;;5094465;28;20199;-85
2023/02/05 04:31:18;;;;;;;11.13;7.10;;;9.10;88.40;;;;;;5095744;28;20195;-86
2023/02/05 04:33:44;;;;;;;8.67;6.70;;;9.00;90.10;;;;;;5094876;28;20164;-84
2023/02/05 04:36:10;;;;;;;11.33;6.77;;;9.30;89.90;;;;;;5094341;28;20182;-82
2023/02/05 04:38:35;;;;;;;9.80;7.60;;;9.10;90.00;;;;;;5107479;28;20196;-81
2023/02/05 04:41:01;;;;;;;12.27;7.23;;;9.10;90.20;;;;;;5098561;28;20191;-86
2023/02/05 04:43:27;;;;;;;9.43;7.97;;;9.10;90.60;;;;;;5095530;28;20190;-86
2023/02/05 04:45:52;;;;;;;9.80;7.50;;;9.10;90.80;;;;;;5104598;28;20180;-82
2023/02/05 04:48:20;;;;;;;10.30;8.10;;;9.20;91.30;;;;;;5100375;28;20168;-91
2023/02/05 04:50:46;;;;;;;11.57;8.33;;;9.00;92.60;;;;;;5095646;28;20211;-92
2023/02/05 04:53:12;;;;;;;11.70;8.37;;;9.00;93.50;;;;;;5098394;28;20667;-87
2023/02/05 04:55:37;;;;;;;11.00;8.40;;;9.00;94.80;;;;;;5106635;28;20172;-86
2023/02/05 04:58:03;;;;;;;13.33;8.67;;;9.00;95.40;;;;;;5109384;28;20152;-82
2023/02/05 05:00:30;;;;;;;12.93;10.23;;;9.10;95.80;;;;;;5101586;28;20184;-81
2023/02/05 05:03:03;;;;;;;14.53;9.57;;;9.00;96.10;;;;;;5097486;28;20160;-86
2023/02/05 05:05:28;;;;;;;17.33;11.10;;;9.00;97.30;;;;;;5096339;28;20632;-81
2023/02/05 05:07:54;;;;;;;14.90;10.80;;;8.90;98.70;;;;;;5095701;28;20266;-83
2023/02/05 05:10:19;;;;;;;15.53;11.47;;;9.00;99.90;;;;;;5098596;28;20195;-90
2023/02/05 05:12:45;;;;;;;14.80;12.17;;;8.90;99.90;;;;;;5118082;28;20164;-85
2023/02/05 05:15:14;;;;;;;16.77;13.10;;;8.90;99.90;;;;;;5105117;28;20252;-83
2023/02/05 05:17:42;;;;;;;17.90;14.43;;;8.90;99.90;;;;;;5095769;28;20224;-83
2023/02/05 05:20:09;;;;;;;17.97;14.23;;;8.70;99.90;;;;;;5117506;28;20167;-85
2023/02/05 05:22:36;;;;;;;21.27;15.43;;;8.70;99.90;;;;;;5116884;28;20227;-83
2023/02/05 05:25:01;;;;;;;23.27;16.60;;;8.70;99.90;;;;;;5115102;28;20164;-80
2023/02/05 05:27:27;;;;;;;20.27;16.57;;;8.60;99.90;;;;;;5117152;28;20180;-86
2023/02/05 05:29:53;;;;;;;21.53;18.57;;;8.50;99.90;;;;;;5114276;28;20212;-81
2023/02/05 05:32:20;;;;;;;24.00;18.53;;;8.60;99.90;;;;;;5107794;28;20224;-81
2023/02/05 05:34:48;;;;;;;25.20;19.33;;;8.50;99.90;;;;;;5113026;28;20163;-82
2023/02/05 05:37:22;;;;;;;25.80;19.70;;;8.40;99.90;;;;;;5102806;28;20221;-90
2023/02/05 05:48:55;;;;;;;26.80;20.63;;;8.40;99.90;;;;;;5096005;28;20199;-90
2023/02/05 05:51:22;;;;;;;27.80;22.60;;;8.40;99.90;;;;;;5094556;28;20190;-91
2023/02/05 05:53:48;;;;;;;28.10;22.93;;;8.40;99.90;;;;;;5094272;28;20319;-88
2023/02/05 05:56:14;;;;;;;26.63;23.73;;;8.30;99.90;;;;;;5111343;28;20187;-84
2023/02/05 05:58:40;;;;;;;27.57;24.57;;;8.30;99.90;;;;;;5116217;28;20210;-88
2023/02/05 06:01:07;;;;;;;27.60;23.67;;;8.30;99.90;;;;;;5112839;28;20183;-84
2023/02/05 06:03:36;;;;;;;29.63;25.17;;;8.50;99.90;;;;;;5095963;28;20159;-90
2023/02/05 06:06:04;;;;;;;27.00;23.10;;;8.40;99.90;;;;;;5098312;28;20217;-90
2023/02/05 06:08:31;;;;;;;29.67;24.27;;;8.50;99.90;;;;;;5099089;28;20683;-89
2023/02/05 06:10:57;;;;;;;29.43;24.93;;;8.50;99.90;;;;;;5097416;28;20302;-92
2023/02/05 06:13:24;;;;;;;28.80;24.60;;;8.50;99.90;;;;;;5098080;28;20182;-86
2023/02/05 06:15:49;;;;;;;31.70;26.27;;;8.60;99.90;;;;;;5111617;28;20205;-82
2023/02/05 06:18:16;;;;;;;30.80;26.57;;;8.50;99.90;;;;;;5106017;28;20175;-91
2023/02/05 06:20:41;;;;;;;29.90;26.10;;;8.40;99.90;;;;;;5099223;28;20694;-88
2023/02/05 06:23:07;;;;;;;29.63;25.67;;;8.40;99.90;;;;;;5113054;28;20176;-89
2023/02/05 06:25:33;;;;;;;32.10;25.23;;;8.50;99.90;;;;;;5104214;28;20643;-93
2023/02/05 06:27:58;;;;;;;28.57;23.77;;;8.40;99.90;;;;;;5088253;28;20179;-87
2023/02/05 06:30:26;;;;;;;25.50;22.37;;;8.40;99.90;;;;;;5110025;28;20211;-89
2023/02/05 06:36:14;;;;;;;23.17;19.10;;;8.30;99.90;;;;;;5102189;28;20259;-92
2023/02/05 06:38:45;;;;;;;20.70;15.90;;;8.40;99.90;;;;;;5099915;28;20195;-88
2023/02/05 06:41:10;;;;;;;14.97;8.57;;;8.40;99.90;;;;;;5098236;28;20171;-92
2023/02/05 06:43:36;;;;;;;10.80;7.80;;;8.30;99.90;;;;;;5099798;28;20198;-92
2023/02/05 06:46:02;;;;;;;10.90;6.13;;;8.20;99.90;;;;;;5102599;28;20176;-91
2023/02/05 06:48:28;;;;;;;10.40;5.67;;;8.30;99.90;;;;;;5104645;28;20186;-88
2023/02/05 06:50:54;;;;;;;8.37;4.93;;;8.40;99.90;;;;;;5097727;28;20215;-91
2023/02/05 06:53:21;;;;;;;7.77;3.80;;;8.20;99.90;;;;;;5103570;28;20195;-88
2023/02/05 06:55:46;;;;;;;8.83;2.77;;;8.10;99.90;;;;;;5106234;28;20243;-91
2023/02/05 06:58:12;;;;;;;8.63;2.23;;;8.00;99.90;;;;;;5112168;28;20176;-92
2023/02/05 07:00:41;;;;;;;6.03;2.40;;;7.90;99.90;;;;;;5105633;28;20163;-91
2023/02/05 07:03:10;;;;;;;7.93;3.07;;;7.90;99.90;;;;;;5103131;28;20266;-91
2023/02/05 07:05:37;;;;;;;14.80;3.00;;;8.00;99.90;;;;;;5118294;28;20244;-88
2023/02/05 07:08:08;;;;;;;12.40;2.90;;;8.00;99.90;;;;;;5119933;28;20233;-81
2023/02/05 07:10:37;;;;;;;11.53;3.13;;;8.00;99.90;;;;;;5120679;28;20209;-80
2023/02/05 07:13:03;;;;;;;6.30;2.07;;;7.90;99.90;;;;;;5118959;28;20156;-88
2023/02/05 07:15:35;;;;;;;11.93;2.70;;;7.80;99.90;;;;;;5110930;28;20168;-84
2023/02/05 07:18:04;;;;;;;10.40;2.50;;;8.00;99.90;;;;;;5109647;28;20190;-88
2023/02/05 07:20:31;;;;;;;11.30;2.60;;;7.80;99.90;;;;;;5104623;28;20190;-90
2023/02/05 07:23:00;;;;;;;11.17;2.53;;;7.80;99.90;;;;;;5103121;28;20159;-80
2023/02/05 07:25:27;;;;;;;11.57;3.17;;;7.80;99.90;;;;;;5115667;28;20156;-79
2023/02/05 07:27:52;;;;;;;13.33;2.97;;;7.80;99.90;;;;;;5113873;28;20168;-80
2023/02/05 07:30:19;;;;;;;9.43;2.70;;;7.90;99.90;;;;;;5105460;28;20241;-91
2023/02/05 07:32:52;;;;;;;10.67;2.70;;;7.90;99.90;;;;;;5096222;28;20183;-91
2023/02/05 07:35:17;;;;;;;6.87;2.13;;;7.80;99.90;;;;;;5097945;28;20181;-90
2023/02/05 07:37:43;;;;;;;13.33;2.53;;;7.80;99.90;;;;;;5117832;28;20176;-80
2023/02/05 07:40:09;;;;;;;8.70;2.37;;;7.70;99.90;;;;;;5117959;28;20168;-85
2023/02/05 07:42:36;;;;;;;14.63;2.67;;;7.80;99.90;;;;;;5113361;28;20164;-86
2023/02/05 07:45:04;;;;;;;7.07;2.23;;;7.70;99.90;;;;;;5107568;28;20180;-87
2023/02/05 07:47:29;;;;;;;8.97;2.50;;;7.70;99.90;;;;;;5104507;28;20221;-89
2023/02/05 07:49:55;;;;;;;10.03;1.80;;;7.70;98.30;;;;;;5098542;28;20188;-89
2023/02/05 07:52:22;;;;;;;5.90;2.03;;;7.70;97.10;;;;;;5100285;28;20192;-90
2023/02/05 07:54:48;;;;;;;8.40;2.43;;;7.70;93.10;;;;;;5099615;28;20164;-89
2023/02/05 07:57:13;;;;;;;6.00;2.20;;;7.80;93.10;;;;;;5100008;28;20659;-90
2023/02/05 07:59:39;;;;;;;10.07;2.33;;;7.80;92.90;;;;;;5097364;28;20224;-90
2023/02/05 08:02:08;;;;;;;4.40;1.97;;;7.80;92.30;;;;;;5096320;28;20712;-84
2023/02/05 08:04:34;;;;;;;8.17;2.57;;;7.80;92.00;;;;;;5097640;28;20172;-90
2023/02/05 08:07:00;;;;;;;8.20;2.67;;;7.80;92.60;;;;;;5109363;28;20178;-80
2023/02/05 08:09:25;;;;;;;8.93;2.20;;;7.80;93.90;;;;;;5111206;28;20211;-80
2023/02/05 08:11:52;;;;;;;10.77;2.10;;;7.70;94.20;;;;;;5108527;28;20176;-92
2023/02/05 08:17:41;;;;;;;10.27;1.70;;;7.70;94.10;;;;;;5113054;28;20202;-83
2023/02/05 08:20:08;;;;;;;8.33;1.90;;;7.80;92.90;;;;;;5116009;28;20220;-82
2023/02/05 08:22:37;;;;;;;5.23;1.87;;;7.70;93.00;;;;;;5114354;28;20159;-81
2023/02/05 08:25:07;;;;;;;11.63;2.03;;;7.70;92.50;;;;;;5109947;28;20180;-79
2023/02/05 08:28:01;;;;;;;8.33;1.80;;;7.70;92.20;;;;;;5112170;28;20232;-85
2023/02/05 08:30:29;;;;;;;12.20;3.33;;;7.70;90.70;;;;;;5108048;28;20260;-82
2023/02/05 08:33:03;;;;;;;4.77;1.53;;;7.90;90.80;;;;;;5100113;28;20258;-90
2023/02/05 08:35:31;;;;;;;7.73;1.70;;;7.70;90.40;;;;;;5096645;28;20174;-91
2023/02/05 08:37:57;;;;;;;17.10;3.53;;;7.80;90.00;;;;;;5099256;28;20152;-91
2023/02/05 08:40:26;;;;;;;15.50;2.93;;;7.80;90.50;;;;;;5099394;28;20172;-88
2023/02/05 08:43:01;;;;;;;11.70;2.57;;;7.80;90.50;;;;;;5098234;28;20183;-90
2023/02/05 08:45:28;;;;;;;13.73;2.50;;;7.90;90.10;;;;;;5097837;28;20179;-90
2023/02/05 08:47:54;;;;;;;12.27;3.07;;;7.90;90.10;;;;;;5100603;28;20148;-91
2023/02/05 08:50:21;;;;;;;10.27;1.90;;;8.00;89.40;;;;;;5097705;28;20206;-88
2023/02/05 08:52:48;;;;;;;10.63;3.00;;;8.10;90.00;;;;;;5096002;28;20187;-93
2023/02/05 08:55:17;;;;;;;12.50;2.50;;;7.90;90.60;;;;;;5083775;28;20176;-88
2023/02/05 08:57:42;;;;;;;7.57;2.90;;;7.90;90.60;;;;;;5107418;28;20175;-86
2023/02/05 09:00:09;;;;;;;11.83;2.83;;;7.90;90.40;;;;;;5109901;28;20195;-92
2023/02/05 09:02:39;;;;;;;15.73;3.10;;;7.80;91.50;;;;;;5088271;28;20233;-86
2023/02/05 09:05:06;;;;;;;15.73;2.60;;;7.80;92.50;;;;;;5116018;28;20241;-91
2023/02/05 09:07:36;;;;;;;17.80;3.33;;;7.80;91.70;;;;;;5106328;28;20179;-93
2023/02/05 09:10:02;;;;;;;14.97;2.50;;;7.90;91.60;;;;;;5104124;28;20218;-94
2023/02/05 09:12:31;;;;;;;12.87;3.63;;;7.90;90.30;;;;;;5082673;28;20179;-84
2023/02/05 09:15:01;;;;;;;13.43;3.53;;;7.90;90.30;;;;;;5101724;28;20207;-82
2023/02/05 09:17:28;;;;;;;9.00;2.33;;;7.90;87.70;;;;;;5109629;28;20608;-92
2023/02/05 09:19:56;;;;;;;12.70;2.87;;;7.90;88.10;;;;;;5095341;28;20187;-92
2023/02/05 09:22:23;;;;;;;14.30;2.80;;;7.90;87.40;;;;;;5102856;28;20199;-92
2023/02/05 09:24:48;;;;;;;11.43;2.90;;;7.90;87.30;;;;;;5096910;28;20659;-88
2023/02/05 09:27:14;;;;;;;16.23;2.73;;;7.90;84.10;;;;;;5097866;28;20201;-88
2023/02/05 09:29:40;;;;;;;9.77;3.13;;;7.90;85.00;;;;;;5101763;28;20270;-86
2023/02/05 09:32:06;;;;;;;17.70;3.13;;;7.90;86.30;;;;;;5108295;28;20186;-81
2023/02/05 09:34:31;;;;;;;14.23;2.80;;;8.00;88.30;;;;;;5112751;28;20266;-82
2023/02/05 09:36:57;;;;;;;15.93;2.87;;;7.90;90.30;;;;;;5109647;28;20168;-83
2023/02/05 09:42:45;;;;;;;22.03;4.93;;;7.90;96.00;;;;;;5105156;28;20175;-90
2023/02/05 09:45:31;;;;;;;16.17;2.90;;;7.70;98.80;;;;;;5100107;28;20677;-90
2023/02/05 09:48:09;;;;;;;20.93;3.47;;;7.60;99.90;;;;;;5098147;28;20179;-93
2023/02/05 09:50:36;;;;;;;16.80;3.33;;;7.70;99.90;;;;;;5107920;28;20207;-88
2023/02/05 09:53:06;;;;;;;15.83;3.10;;;7.80;98.90;;;;;;5117963;28;20180;-82
2023/02/05 09:55:37;;;;;;;17.33;3.80;;;7.70;99.90;;;;;;5112751;28;20167;-86
2023/02/05 09:58:10;;;;;;;16.03;3.87;;;7.70;99.30;;;;;;5104143;28;20171;-89
2023/02/05 10:01:05;;;;;;;19.57;4.37;;;7.70;96.60;;;;;;5100627;28;20167;-89
2023/02/05 10:03:43;;;;;;;15.00;3.50;;;7.80;96.40;;;;;;5094986;28;20214;-89
2023/02/05 10:06:14;;;;;;;16.77;3.87;;;7.90;96.20;;;;;;5100240;28;20180;-84
2023/02/05 10:09:15;;;;;;;11.27;2.97;;;7.90;94.30;;;;;;5102149;28;20441;-90
2023/02/05 10:12:03;;;;;;;13.97;3.33;;;7.70;91.90;;;;;;5114510;28;20198;-84
2023/02/05 10:14:53;;;;;;;12.80;4.27;;;7.80;93.50;;;;;;5113003;28;20175;-91
2023/02/05 10:17:59;;;;;;;19.60;4.43;;;7.80;93.30;;;;;;5109792;27;20176;-85
2023/02/05 10:20:59;;;;;;;18.53;4.60;;;7.90;93.30;;;;;;5100649;28;20207;-91
2023/02/05 10:23:37;;;;;;;14.80;4.40;;;7.90;93.30;;;;;;5094669;28;20175;-87
2023/02/05 10:26:21;;;;;;;14.37;3.43;;;8.00;92.00;;;;;;5108341;28;20217;-89
2023/02/05 10:28:55;;;;;;;15.63;3.87;;;8.00;91.10;;;;;;5104327;28;20176;-84
2023/02/05 10:31:32;;;;;;;20.63;4.33;;;7.90;91.10;;;;;;5099417;28;20270;-91
2023/02/05 10:34:29;;;;;;;18.53;4.77;;;8.10;90.90;;;;;;5094609;28;20175;-88
2023/02/05 10:36:55;;;;;;;25.47;4.00;;;8.20;90.20;;;;;;5094639;28;20208;-88
2023/02/05 10:39:28;;;;;;;13.60;4.73;;;8.20;85.70;;;;;;5092662;28;20211;-86
2023/02/05 10:42:00;;;;;;;14.07;3.57;;;8.20;82.50;;;;;;5091999;28;20270;-84
2023/02/05 10:44:31;;;;;;;20.73;4.87;;;8.30;85.80;;;;;;5091321;28;20200;-88
2023/02/05 10:47:05;;;;;;;25.13;4.30;;;8.30;83.70;;;;;;5097737;28;20164;-87
2023/02/05 10:49:43;;;;;;;17.13;3.97;;;8.30;82.60;;;;;;5094861;28;20206;-85
2023/02/05 10:52:12;;;;;;;19.57;3.97;;;8.20;78.70;;;;;;5095083;28;20195;-89
2023/02/05 10:54:39;;;;;;;22.57;4.83;;;8.30;81.50;;;;;;5095345;28;20584;-87
2023/02/05 10:57:12;;;;;;;14.30;4.87;;;8.30;80.30;;;;;;5102878;28;20194;-86
2023/02/05 10:59:52;;;;;;;15.57;4.23;;;8.30;79.00;;;;;;5118418;28;20159;-85
2023/02/05 11:02:20;;;;;;;10.90;3.50;;;8.30;74.60;;;;;;5113486;28;20182;-84
2023/02/05 11:04:55;;;;;;;18.77;4.00;;;8.20;67.60;;;;;;5099831;28;20270;-83
2023/02/05 11:07:39;;;;;;;7.33;2.73;;;8.30;71.70;;;;;;5093022;28;20233;-85
2023/02/05 11:10:26;;;;;;;19.77;4.40;;;8.40;66.80;;;;;;5095218;28;20210;-89
2023/02/05 11:13:16;;;;;;;16.67;4.23;;;8.30;65.70;;;;;;5098244;28;20179;-90
2023/02/05 11:16:05;;;;;;;16.30;4.10;;;8.40;67.20;;;;;;5113147;28;20167;-90
2023/02/05 11:18:39;;;;;;;28.80;5.47;;;8.50;68.10;;;;;;5113176;28;20214;-86
2023/02/05 11:21:08;;;;;;;20.73;5.23;;;8.60;62.30;;;;;;5108211;28;20179;-89
2023/02/05 11:23:41;;;;;;;19.40;4.27;;;8.60;60.80;;;;;;5104906;28;20195;-90
2023/02/05 11:26:22;;;;;;;16.03;4.43;;;8.70;59.20;;;;;;5081628;28;20266;-87
2023/02/05 11:28:49;;;;;;;17.53;4.47;;;8.70;56.00;;;;;;5101879;28;20171;-89
2023/02/05 11:31:26;;;;;;;21.93;4.23;;;8.80;52.20;;;;;;5101537;28;20159;-89
2023/02/05 11:34:16;;;;;;;17.73;4.17;;;9.00;54.50;;;;;;5104190;28;20167;-89
2023/02/05 11:36:54;;;;;;;18.53;4.37;;;8.70;55.70;;;;;;5084833;28;20170;-89
2023/02/05 11:39:35;;;;;;;14.33;3.30;;;8.70;58.90;;;;;;5100665;28;20252;-87
2023/02/05 11:42:18;;;;;;;23.43;4.40;;;8.70;56.40;;;;;;5100786;28;20179;-85
2023/02/05 11:44:56;;;;;;;22.03;4.63;;;8.70;58.60;;;;;;5087973;28;20219;-87
2023/02/05 11:47:33;;;;;;;21.67;4.73;;;8.70;57.90;;;;;;5082749;28;20289;-89
2023/02/05 11:49:59;;;;;;;24.27;4.43;;;8.70;59.40;;;;;;5094193;28;20207;-88
2023/02/05 11:52:29;;;;;;;17.07;4.30;;;8.70;58.60;;;;;;5100611;28;20558;-90
2023/02/05 11:54:55;;;;;;;23.47;4.87;;;8.70;56.70;;;;;;5101287;28;20723;-90
2023/02/05 11:57:21;;;;;;;17.77;4.87;;;8.70;56.20;;;;;;5098084;28;20172;-89
2023/02/05 12:00:11;;;;;;;19.57;4.73;;;8.70;56.80;;;;;;5097570;28;20233;-88
2023/02/05 12:02:40;;;;;;;14.87;4.67;;;8.70;55.40;;;;;;5099755;28;20201;-91
2023/02/05 12:05:11;;;;;;;17.03;4.10;;;8.70;52.50;;;;;;5110234;28;20171;-83
2023/02/05 12:07:46;;;;;;;17.03;4.50;;;8.70;51.00;;;;;;5113612;28;20171;-86
2023/02/05 12:10:39;;;;;;;17.43;4.37;;;9.00;46.50;;;;;;5114083;28;20203;-86
2023/02/05 12:13:18;;;;;;;15.07;4.73;;;8.80;42.60;;;;;;5107422;28;20218;-87
2023/02/05 12:15:56;;;;;;;14.17;4.13;;;8.90;42.30;;;;;;5102626;28;20175;-86
2023/02/05 12:18:44;;;;;;;16.00;4.27;;;8.90;40.20;;;;;;5105741;28;20175;-85
2023/02/05 12:21:43;;;;;;;15.33;3.83;;;9.00;38.00;;;;;;5103759;28;20190;-86
2023/02/05 12:24:43;;;;;;;19.67;4.20;;;9.00;1.00;;;;;;5096864;28;20180;-82
2023/02/05 12:27:18;;;;;;;12.03;2.93;;;9.20;1.00;;;;;;5108024;28;20166;-81
2023/02/05 12:30:22;;;;;;;14.73;3.50;;;9.20;1.00;;;;;;5102697;28;20213;-86
2023/02/05 12:33:31;;;;;;;20.80;4.40;;;9.30;1.00;;;;;;5083564;28;20650;-86
2023/02/05 12:36:29;;;;;;;14.40;3.30;;;9.30;1.00;;;;;;5089824;28;20191;-85
2023/02/05 12:39:33;;;;;;;14.60;3.13;;;9.30;1.00;;;;;;5072703;28;20191;-86
2023/02/05 12:42:41;;;;;;;13.40;4.13;;;9.30;1.00;;;;;;5074755;28;20175;-87
2023/02/05 12:45:17;;;;;;;23.33;4.30;;;9.30;1.00;;;;;;5109043;28;20175;-88
2023/02/05 12:48:05;;;;;;;16.07;2.73;;;9.30;1.00;;;;;;5116406;28;20152;-88
2023/02/05 12:50:52;;;;;;;17.60;4.37;;;9.30;1.00;;;;;;5114298;28;20223;-83
2023/02/05 12:53:37;;;;;;;20.63;4.30;;;9.30;1.00;;;;;;5098304;28;20227;-83
2023/02/05 12:56:35;;;;;;;15.90;3.50;;;9.30;1.00;;;;;;5097023;28;20167;-83
2023/02/05 12:59:24;;;;;;;14.00;3.30;;;9.30;1.00;;;;;;5095897;28;20163;-85
2023/02/05 13:01:55;;;;;;;14.07;2.87;;;9.20;1.00;;;;;;5096308;28;20192;-87
2023/02/05 13:04:49;;;;;;;10.40;2.67;;;9.30;1.00;;;;;;5094799;28;20588;-87
2023/02/05 13:07:37;;;;;;;9.13;2.47;;;9.30;1.00;;;;;;5096821;28;20160;-88
2023/02/05 13:10:16;;;;;;;12.40;3.40;;;9.30;1.00;;;;;;5094206;28;20191;-84
2023/02/05 13:12:47;;;;;;;8.97;2.73;;;9.30;1.00;;;;;;5094513;28;20261;-87
2023/02/05 13:15:23;;;;;;;12.67;2.67;;;9.30;1.00;;;;;;5096506;28;20171;-87
2023/02/05 13:18:00;;;;;;;12.50;3.70;;;9.30;1.00;;;;;;5101933;28;20639;-83
2023/02/05 13:29:08;;;;;;;11.90;2.47;;;9.40;1.00;;;;;;5094998;28;20214;-91
2023/02/05 13:31:39;;;;;;;16.13;3.73;;;9.30;1.00;;;;;;5112028;28;20171;-90
2023/02/05 13:34:07;;;;;;;13.40;2.83;;;9.30;1.00;;;;;;5097108;28;20176;-88
2023/02/05 13:36:42;;;;;;;13.97;3.53;;;9.40;1.00;;;;;;5096959;28;20190;-91
2023/02/05 13:39:34;;;;;;;14.60;4.20;;;9.40;1.00;;;;;;5100123;28;20186;-91
2023/02/05 13:42:33;;;;;;;14.63;3.80;;;9.50;1.00;;;;;;5100156;28;20172;-91
2023/02/05 13:45:14;;;;;;;15.43;3.27;;;9.40;1.00;;;;;;5102710;28;20197;-90
2023/02/05 13:47:43;;;;;;;23.63;4.43;;;9.30;1.00;;;;;;5094446;28;20170;-91
2023/02/05 13:50:46;;;;;;;15.07;3.30;;;9.30;1.00;;;;;;5097141;28;20196;-92
2023/02/05 13:53:37;;;;;;;17.73;4.80;;;9.30;1.00;;;;;;5105565;28;20202;-91
2023/02/05 13:56:44;;;;;;;13.87;4.20;;;9.40;1.00;;;;;;5116396;28;20163;-90